KLCH/LCH METAR and TAF weather

Enter ICAO airport designator
Station Type Date Time Source
KLCH METAR 2021/06/24 04:53 UTC NOAA

KLCH 240453Z AUTO 13004KT 10SM CLR 27/26 A3003 RMK AO2 SLP176 T02670261


Station Type Date Time Source
KLCH Decoded METAR 2021/06/24 04:53 UTC NOAA

LAKE CHARLES REGIONAL AIRPORT , LA, United States (KLCH) 30-12N 093-23W 3M
Jun 24, 2021 - 12:53 AM EDT / 2021.06.24 0453 UTC
Wind: from the SE (130 degrees) at 5 MPH (4 KT):0
Visibility: 10 mile(s):0
Sky conditions: clear
Temperature: 80.1 F (26.7 C)
Dew Point: 79.0 F (26.1 C)
Relative Humidity: 96%
Pressure (altimeter): 30.03 in. Hg (1016 hPa)
ob: KLCH 240453Z AUTO 13004KT 10SM CLR 27/26 A3003 RMK AO2 SLP176 T02670261
cycle: 5

Station Type Date Time Source
KLCH TAF 2021/06/24 06:22 UTC NOAA

TAF KLCH 240520Z 2406/2506 16006KT P6SM FEW017
FM240900 VRB04KT P6SM SCT020 BKN200
FM241300 16005KT P6SM SCT020 BKN200
FM241600 19007KT P6SM SCT022 BKN100 PROB30 2416/2420 P6SM TS BKN050CB
FM242100 19008KT P6SM BKN250

Example: see airport list